Time;durP1;ratioP1;P1;durP2;ratioP2;P2;SDS_P1;SDS_P2;PMS_P1;PMS_P2;Temp;Humidity;BMP_temperature;BMP_pressure;BME280_temperature;BME280_humidity;BME280_pressure;Samples;Min_cycle;Max_cycle;Signal;HPM_P1;HPM_P2
2022/03/28 00:00:11;;;;;;;10.13;7.33;;;9.30;99.90;;;;;;5069414;28;20222;-73
2022/03/28 00:02:40;;;;;;;12.00;7.70;;;9.30;99.90;;;;;;5071853;28;20188;-74
2022/03/28 00:05:07;;;;;;;10.87;7.10;;;9.20;99.90;;;;;;5070943;28;20441;-73
2022/03/28 00:07:32;;;;;;;11.97;7.20;;;9.20;99.90;;;;;;5072233;28;20445;-73
2022/03/28 00:09:58;;;;;;;13.67;7.50;;;9.20;99.90;;;;;;5057914;28;20921;-73
2022/03/28 00:12:24;;;;;;;10.30;8.00;;;9.10;99.90;;;;;;5093851;28;20312;-73
2022/03/28 00:14:50;;;;;;;16.23;8.40;;;9.10;99.90;;;;;;5077069;28;20566;-74
2022/03/28 00:17:15;;;;;;;16.53;8.33;;;9.10;99.90;;;;;;5070356;28;20183;-73
2022/03/28 00:19:41;;;;;;;14.60;9.03;;;9.10;99.90;;;;;;5066629;28;20886;-73
2022/03/28 00:22:06;;;;;;;15.73;7.87;;;9.00;99.90;;;;;;5050761;28;20180;-74
2022/03/28 00:24:32;;;;;;;9.90;8.20;;;9.00;99.90;;;;;;5053970;28;20520;-73
2022/03/28 00:26:58;;;;;;;12.60;7.43;;;9.00;99.90;;;;;;5051214;28;20678;-73
2022/03/28 00:29:23;;;;;;;13.97;7.43;;;9.00;99.90;;;;;;5078518;28;20232;-74
2022/03/28 00:31:49;;;;;;;14.87;8.67;;;9.00;99.90;;;;;;5072918;28;20230;-73
2022/03/28 00:34:21;;;;;;;10.83;7.43;;;9.10;99.90;;;;;;5069292;28;20179;-73
2022/03/28 00:36:47;;;;;;;9.93;7.87;;;9.00;99.90;;;;;;5071658;28;20523;-74
2022/03/28 00:39:13;;;;;;;10.90;7.70;;;9.00;99.90;;;;;;5070871;28;20904;-73
2022/03/28 00:41:38;;;;;;;14.07;7.30;;;9.00;99.90;;;;;;5076116;28;20520;-73
2022/03/28 00:44:06;;;;;;;10.27;7.07;;;9.00;99.90;;;;;;5079071;28;20176;-73
2022/03/28 00:46:32;;;;;;;10.10;7.73;;;9.00;99.90;;;;;;5089770;28;20619;-73
2022/03/28 00:48:58;;;;;;;12.93;8.53;;;9.00;99.90;;;;;;5074799;28;20427;-73
2022/03/28 00:51:24;;;;;;;11.00;7.80;;;9.00;99.90;;;;;;5065753;28;20427;-73
2022/03/28 00:53:50;;;;;;;13.23;8.30;;;9.00;99.90;;;;;;5068097;28;20194;-73
2022/03/28 00:56:16;;;;;;;12.50;8.87;;;9.00;99.90;;;;;;5068591;28;20230;-73
2022/03/28 00:58:41;;;;;;;10.90;7.70;;;9.00;99.90;;;;;;5069607;28;20430;-74
2022/03/28 01:01:09;;;;;;;14.00;8.73;;;9.00;99.90;;;;;;5065487;28;20204;-73
2022/03/28 01:03:35;;;;;;;10.57;8.13;;;8.90;99.90;;;;;;5048623;28;20227;-73
2022/03/28 01:06:01;;;;;;;12.60;8.07;;;8.90;99.90;;;;;;5082739;28;20419;-73
2022/03/28 01:08:26;;;;;;;14.63;8.47;;;8.90;99.90;;;;;;5049693;28;20948;-73
2022/03/28 01:10:55;;;;;;;13.83;8.63;;;8.80;99.90;;;;;;5056984;28;20654;-74
2022/03/28 01:13:23;;;;;;;11.73;8.40;;;8.80;99.90;;;;;;5066220;28;20188;-73
2022/03/28 01:15:48;;;;;;;12.80;9.13;;;8.80;99.90;;;;;;5070397;28;20441;-73
2022/03/28 01:18:15;;;;;;;14.27;8.97;;;8.70;99.90;;;;;;5068313;28;20983;-74
2022/03/28 01:20:41;;;;;;;13.60;9.00;;;8.70;99.90;;;;;;5059051;28;20201;-74
2022/03/28 01:23:07;;;;;;;15.03;9.20;;;8.70;99.90;;;;;;5056653;28;20427;-73
2022/03/28 01:25:34;;;;;;;13.90;8.73;;;8.60;99.90;;;;;;5067657;28;20267;-74
2022/03/28 01:28:00;;;;;;;10.90;8.63;;;8.50;99.90;;;;;;5069674;28;20461;-73
2022/03/28 01:30:30;;;;;;;13.00;8.63;;;8.50;99.90;;;;;;5069564;28;20580;-74
2022/03/28 01:32:57;;;;;;;11.30;8.00;;;8.40;99.90;;;;;;5065811;28;20503;-73
2022/03/28 01:35:31;;;;;;;10.67;8.23;;;8.40;99.90;;;;;;5069328;28;20423;-73
2022/03/28 01:37:57;;;;;;;13.80;9.10;;;8.30;99.90;;;;;;5057650;28;20463;-73
2022/03/28 01:40:23;;;;;;;13.13;8.37;;;8.20;99.90;;;;;;5075958;28;20581;-73
2022/03/28 01:42:49;;;;;;;11.50;8.63;;;8.20;99.90;;;;;;5069404;28;20962;-73
2022/03/28 01:45:16;;;;;;;10.70;8.40;;;8.10;99.90;;;;;;5088167;28;20409;-73
2022/03/28 01:47:42;;;;;;;11.10;8.30;;;8.10;99.90;;;;;;5063856;28;20267;-74
2022/03/28 01:50:07;;;;;;;11.77;7.93;;;8.00;99.90;;;;;;5060742;28;20527;-73
2022/03/28 01:52:33;;;;;;;16.53;8.07;;;7.90;99.90;;;;;;5063614;28;20192;-73
2022/03/28 01:54:59;;;;;;;12.17;8.17;;;7.80;99.90;;;;;;5063824;28;20184;-73
2022/03/28 01:57:24;;;;;;;10.67;7.90;;;7.70;99.90;;;;;;5069021;28;20227;-73
2022/03/28 01:59:50;;;;;;;12.73;9.07;;;7.70;99.90;;;;;;5067756;28;20203;-73
2022/03/28 02:02:15;;;;;;;14.00;8.60;;;7.70;99.90;;;;;;5067381;28;20210;-73
2022/03/28 02:04:41;;;;;;;13.30;9.90;;;7.70;99.90;;;;;;5066173;28;20550;-73
2022/03/28 02:07:06;;;;;;;11.97;9.00;;;7.70;99.90;;;;;;5061042;28;20607;-73
2022/03/28 02:09:32;;;;;;;13.47;8.60;;;7.60;99.90;;;;;;5080364;28;20849;-73
2022/03/28 02:11:57;;;;;;;12.03;8.53;;;7.50;99.90;;;;;;5063496;28;20180;-73
2022/03/28 02:14:23;;;;;;;11.33;8.80;;;7.50;99.90;;;;;;5073212;28;20185;-73
2022/03/28 02:16:48;;;;;;;15.73;9.53;;;7.50;99.90;;;;;;5068451;28;20405;-73
2022/03/28 02:19:14;;;;;;;15.77;9.80;;;7.50;99.90;;;;;;5066902;28;20386;-73
2022/03/28 02:21:40;;;;;;;11.30;8.47;;;7.40;99.90;;;;;;5050453;28;20260;-73
2022/03/28 02:24:05;;;;;;;14.00;9.20;;;7.40;99.90;;;;;;5049200;28;20212;-73
2022/03/28 02:26:31;;;;;;;18.50;10.00;;;7.30;99.90;;;;;;5048609;28;20177;-73
2022/03/28 02:28:56;;;;;;;12.77;9.33;;;7.30;99.90;;;;;;5047247;28;20173;-74
2022/03/28 02:31:22;;;;;;;12.90;9.20;;;7.30;99.90;;;;;;5062268;28;20195;-73
2022/03/28 02:33:47;;;;;;;23.80;9.43;;;7.30;99.90;;;;;;5065746;28;20234;-72
2022/03/28 02:36:13;;;;;;;14.23;9.53;;;7.30;99.90;;;;;;5068726;28;20205;-73
2022/03/28 02:38:38;;;;;;;13.30;9.33;;;7.20;99.90;;;;;;5068126;28;20603;-73
2022/03/28 02:41:04;;;;;;;13.53;9.63;;;7.20;99.90;;;;;;5062352;28;20783;-73
2022/03/28 02:43:29;;;;;;;12.73;8.57;;;7.20;99.90;;;;;;5079651;28;20546;-73
2022/03/28 02:45:55;;;;;;;12.67;8.53;;;7.20;99.90;;;;;;5088612;28;20175;-73
2022/03/28 02:48:21;;;;;;;13.60;9.00;;;7.30;99.90;;;;;;5072373;28;20230;-73
2022/03/28 02:50:47;;;;;;;12.17;8.50;;;7.30;99.90;;;;;;5071095;28;20216;-73
2022/03/28 02:53:12;;;;;;;13.90;9.57;;;7.30;99.90;;;;;;5048647;28;20176;-74
2022/03/28 02:55:38;;;;;;;13.83;8.63;;;7.30;99.90;;;;;;5059115;28;20434;-73
2022/03/28 02:58:04;;;;;;;13.93;8.37;;;7.30;99.90;;;;;;5065988;28;20218;-73
2022/03/28 03:00:30;;;;;;;9.50;8.17;;;7.20;99.90;;;;;;5066438;28;20204;-73
2022/03/28 03:02:55;;;;;;;13.03;8.40;;;7.20;99.90;;;;;;5066626;28;21012;-73
2022/03/28 03:05:23;;;;;;;13.23;8.87;;;7.30;99.90;;;;;;5052496;28;20169;-73
2022/03/28 03:07:49;;;;;;;10.50;7.90;;;7.10;99.90;;;;;;5046508;28;20188;-73
2022/03/28 03:10:15;;;;;;;14.80;8.80;;;7.00;99.90;;;;;;5049900;28;20458;-73
2022/03/28 03:12:41;;;;;;;11.70;8.07;;;7.00;99.90;;;;;;5068986;28;20416;-73
2022/03/28 03:15:07;;;;;;;12.43;9.07;;;7.00;99.90;;;;;;5058343;28;20494;-73
2022/03/28 03:17:32;;;;;;;10.33;8.57;;;6.90;99.90;;;;;;5068273;28;20682;-73
2022/03/28 03:19:58;;;;;;;15.53;9.60;;;6.90;99.90;;;;;;5056730;28;20462;-73
2022/03/28 03:22:23;;;;;;;13.90;8.80;;;6.90;99.90;;;;;;5048097;28;20181;-73
2022/03/28 03:24:49;;;;;;;12.93;8.40;;;6.80;99.90;;;;;;5073489;28;20173;-74
2022/03/28 03:27:15;;;;;;;13.50;9.07;;;6.70;99.90;;;;;;5046297;28;20276;-73
2022/03/28 03:29:41;;;;;;;11.27;8.73;;;6.70;99.90;;;;;;5057590;28;20197;-73
2022/03/28 03:32:07;;;;;;;15.70;10.10;;;6.70;99.90;;;;;;5067342;28;20196;-73
2022/03/28 03:34:33;;;;;;;13.47;10.03;;;6.60;99.90;;;;;;5061530;28;20465;-73
2022/03/28 03:37:00;;;;;;;13.77;9.27;;;6.50;99.90;;;;;;5066704;28;20454;-73
2022/03/28 03:39:26;;;;;;;14.40;9.67;;;6.40;99.90;;;;;;5064672;28;20443;-73
2022/03/28 03:41:52;;;;;;;11.67;8.90;;;6.40;99.90;;;;;;5074552;28;21100;-73
2022/03/28 03:44:18;;;;;;;16.63;9.87;;;6.30;99.90;;;;;;5069667;28;20219;-73
2022/03/28 03:46:43;;;;;;;12.90;9.30;;;6.20;99.90;;;;;;5064385;28;20914;-73
2022/03/28 03:49:09;;;;;;;14.83;9.30;;;6.10;99.90;;;;;;5047593;28;20197;-73
2022/03/28 03:51:35;;;;;;;11.30;8.60;;;6.10;99.90;;;;;;5047848;28;20219;-74
2022/03/28 03:54:01;;;;;;;11.87;8.13;;;6.10;99.90;;;;;;5051359;28;20176;-73
2022/03/28 03:56:30;;;;;;;11.90;8.30;;;6.10;99.90;;;;;;5065026;28;20853;-73
2022/03/28 03:58:56;;;;;;;13.00;8.37;;;6.10;99.90;;;;;;5062831;28;20226;-73
2022/03/28 04:01:23;;;;;;;11.83;8.53;;;6.10;99.90;;;;;;5048555;28;20407;-73
2022/03/28 04:03:48;;;;;;;14.10;9.07;;;6.20;99.90;;;;;;5076010;28;20422;-73
2022/03/28 04:06:14;;;;;;;12.27;8.20;;;6.20;99.90;;;;;;5067783;28;20485;-72
2022/03/28 04:08:40;;;;;;;11.47;8.77;;;6.20;99.90;;;;;;5061597;28;20647;-73
2022/03/28 04:11:06;;;;;;;13.40;9.00;;;6.10;99.90;;;;;;5062444;28;20207;-73
2022/03/28 04:13:33;;;;;;;13.90;9.37;;;6.10;99.90;;;;;;5070610;28;20498;-73
2022/03/28 04:15:59;;;;;;;13.70;8.40;;;6.20;99.90;;;;;;5067515;28;20489;-73
2022/03/28 04:18:25;;;;;;;12.80;9.00;;;6.10;99.90;;;;;;5066827;28;21033;-73
2022/03/28 04:20:52;;;;;;;12.67;9.40;;;6.00;99.90;;;;;;5063211;28;20446;-73
2022/03/28 04:23:18;;;;;;;13.23;8.40;;;5.90;99.90;;;;;;5065717;28;20468;-73
2022/03/28 04:25:44;;;;;;;13.13;9.10;;;5.90;99.90;;;;;;5066583;28;20487;-73
2022/03/28 04:28:10;;;;;;;14.70;9.63;;;5.90;99.90;;;;;;5066722;28;20509;-73
2022/03/28 04:30:35;;;;;;;14.07;8.23;;;5.90;99.90;;;;;;5056914;28;20197;-73
2022/03/28 04:33:02;;;;;;;15.10;8.80;;;5.90;99.90;;;;;;5047421;28;20181;-73
2022/03/28 04:35:28;;;;;;;14.03;8.30;;;5.90;99.90;;;;;;5055979;28;20662;-73
2022/03/28 04:37:54;;;;;;;12.80;8.90;;;5.90;99.90;;;;;;5066896;28;20454;-73
2022/03/28 04:40:20;;;;;;;15.50;9.00;;;5.90;99.90;;;;;;5059896;28;20473;-73
2022/03/28 04:42:47;;;;;;;15.17;8.50;;;5.90;99.90;;;;;;5074257;28;20446;-73
2022/03/28 04:45:13;;;;;;;13.20;8.70;;;5.90;99.90;;;;;;5090807;28;20160;-73
2022/03/28 04:47:39;;;;;;;12.80;9.37;;;5.90;99.90;;;;;;5077246;28;20442;-73
2022/03/28 04:50:06;;;;;;;12.67;9.77;;;5.90;99.90;;;;;;5053677;28;20663;-73
2022/03/28 04:52:32;;;;;;;13.77;9.80;;;5.90;99.90;;;;;;5070925;28;20425;-73
2022/03/28 04:54:58;;;;;;;14.63;9.80;;;5.90;99.90;;;;;;5067722;28;20422;-73
2022/03/28 04:57:23;;;;;;;17.80;9.37;;;5.80;99.90;;;;;;5071053;28;20196;-73
2022/03/28 04:59:49;;;;;;;17.80;10.33;;;5.80;99.90;;;;;;5064175;28;20189;-74
2022/03/28 05:02:14;;;;;;;19.10;9.70;;;5.80;99.90;;;;;;5070773;28;20179;-73
2022/03/28 05:04:40;;;;;;;16.80;11.40;;;5.80;99.90;;;;;;5062787;28;20786;-73
2022/03/28 05:07:06;;;;;;;13.87;10.17;;;5.80;99.90;;;;;;5070965;28;20195;-73
2022/03/28 05:09:32;;;;;;;15.27;10.57;;;5.70;99.90;;;;;;5065531;28;20454;-73
2022/03/28 05:11:58;;;;;;;15.63;10.57;;;5.80;99.90;;;;;;5077365;28;20173;-73
2022/03/28 05:14:24;;;;;;;14.40;10.07;;;5.80;99.90;;;;;;5066834;28;20431;-73
2022/03/28 05:16:49;;;;;;;18.00;10.40;;;5.80;99.90;;;;;;5069087;28;20192;-73
2022/03/28 05:19:16;;;;;;;16.20;10.17;;;5.90;99.90;;;;;;5060024;28;21018;-73
2022/03/28 05:21:41;;;;;;;13.30;9.30;;;5.90;99.90;;;;;;5049316;28;20177;-73
2022/03/28 05:24:07;;;;;;;17.47;9.70;;;5.90;99.90;;;;;;5061366;28;20715;-73
2022/03/28 05:26:32;;;;;;;16.30;9.50;;;5.80;99.90;;;;;;5067659;28;20221;-73
2022/03/28 05:28:58;;;;;;;12.90;9.40;;;6.10;99.90;;;;;;5058886;28;20175;-73
2022/03/28 05:31:24;;;;;;;16.93;9.23;;;5.80;99.90;;;;;;5069562;28;20196;-73
2022/03/28 05:33:49;;;;;;;14.97;8.90;;;5.80;99.90;;;;;;5062785;28;20185;-73
2022/03/28 05:36:16;;;;;;;13.90;9.27;;;5.80;99.90;;;;;;5069196;28;20172;-73
2022/03/28 05:38:42;;;;;;;12.83;9.30;;;5.80;99.90;;;;;;5061746;28;20267;-73
2022/03/28 05:41:08;;;;;;;16.53;9.50;;;5.80;99.90;;;;;;5059425;28;20422;-74
2022/03/28 05:43:34;;;;;;;15.87;9.20;;;5.80;99.90;;;;;;5075236;28;20422;-74
2022/03/28 05:46:00;;;;;;;16.33;9.03;;;5.70;99.90;;;;;;5089187;28;20549;-73
2022/03/28 05:48:26;;;;;;;15.53;9.00;;;5.80;99.90;;;;;;5060576;28;20856;-72
2022/03/28 05:50:52;;;;;;;14.30;9.23;;;5.90;99.90;;;;;;5048508;28;20511;-74
2022/03/28 05:53:17;;;;;;;15.57;8.53;;;6.00;99.90;;;;;;5054729;28;20219;-73
2022/03/28 05:55:43;;;;;;;15.80;9.20;;;6.10;99.90;;;;;;5060873;28;20174;-73
2022/03/28 05:58:09;;;;;;;14.57;9.10;;;6.20;99.90;;;;;;5061686;28;20211;-73
2022/03/28 06:00:36;;;;;;;20.10;9.70;;;6.30;99.90;;;;;;5064937;28;20193;-73
2022/03/28 06:03:06;;;;;;;14.40;9.73;;;6.30;99.90;;;;;;5080888;28;20480;-73
2022/03/28 06:05:32;;;;;;;15.33;9.63;;;5.40;99.90;;;;;;5066123;28;20419;-73
2022/03/28 06:07:58;;;;;;;13.20;8.93;;;6.40;99.90;;;;;;5083021;28;20419;-73
2022/03/28 06:10:25;;;;;;;12.63;8.60;;;6.50;99.90;;;;;;5066036;28;20451;-73
2022/03/28 06:12:50;;;;;;;17.03;8.77;;;6.60;99.90;;;;;;5071473;28;20408;-73
2022/03/28 06:15:18;;;;;;;13.17;8.93;;;6.70;99.90;;;;;;5065836;28;20460;-73
2022/03/28 06:17:43;;;;;;;14.97;9.63;;;6.80;99.90;;;;;;5067500;28;20199;-73
2022/03/28 06:20:10;;;;;;;12.37;8.90;;;6.90;99.90;;;;;;5058126;28;20460;-72
2022/03/28 06:22:36;;;;;;;14.83;9.87;;;7.00;99.90;;;;;;5050501;28;20208;-73
2022/03/28 06:25:03;;;;;;;11.87;9.30;;;7.30;99.90;;;;;;5052774;28;20450;-73
2022/03/28 06:27:29;;;;;;;13.13;8.90;;;7.80;99.90;;;;;;5065435;28;20190;-73
2022/03/28 06:29:54;;;;;;;17.37;9.63;;;8.40;99.90;;;;;;5072436;28;21204;-73
2022/03/28 06:32:20;;;;;;;15.37;9.47;;;9.10;99.90;;;;;;5068094;28;20819;-73
2022/03/28 06:34:48;;;;;;;17.70;8.57;;;9.80;99.90;;;;;;5075382;28;20178;-73
2022/03/28 06:37:16;;;;;;;14.67;9.67;;;10.50;99.90;;;;;;5065360;28;20193;-74
2022/03/28 06:39:43;;;;;;;11.70;9.50;;;11.20;99.90;;;;;;5065964;28;20438;-74
2022/03/28 06:42:09;;;;;;;12.00;8.90;;;11.80;99.90;;;;;;5061751;28;20567;-74
2022/03/28 06:44:35;;;;;;;13.67;10.00;;;12.30;99.90;;;;;;5062192;28;20506;-74
2022/03/28 06:47:01;;;;;;;14.73;10.00;;;12.90;99.90;;;;;;5066399;28;20435;-74
2022/03/28 06:49:26;;;;;;;13.63;9.27;;;13.20;99.90;;;;;;5066885;28;20458;-74
2022/03/28 06:51:52;;;;;;;16.70;9.33;;;13.10;99.90;;;;;;5057437;28;20176;-74
2022/03/28 06:54:19;;;;;;;13.87;10.03;;;12.80;99.90;;;;;;5066889;28;20172;-75
2022/03/28 06:56:45;;;;;;;13.03;10.17;;;12.50;99.90;;;;;;5064813;28;20300;-74
2022/03/28 06:59:12;;;;;;;20.50;9.53;;;12.30;99.90;;;;;;5066504;28;20430;-73
2022/03/28 07:01:38;;;;;;;17.43;9.60;;;12.60;99.90;;;;;;5056469;28;20774;-73
2022/03/28 07:04:05;;;;;;;20.27;10.27;;;13.00;99.90;;;;;;5052697;28;20526;-72
2022/03/28 07:06:31;;;;;;;18.90;11.20;;;13.10;99.90;;;;;;5064207;28;20434;-74
2022/03/28 07:08:56;;;;;;;16.27;11.27;;;12.50;99.90;;;;;;5080764;28;20414;-74
2022/03/28 07:11:22;;;;;;;18.40;10.77;;;12.50;99.90;;;;;;5062469;28;20685;-72
2022/03/28 07:13:47;;;;;;;14.17;10.23;;;12.20;99.90;;;;;;5065378;28;20279;-73
2022/03/28 07:16:13;;;;;;;19.03;10.73;;;12.00;99.90;;;;;;5055297;28;20177;-74
2022/03/28 07:18:38;;;;;;;13.57;10.13;;;12.10;99.90;;;;;;5058016;28;20373;-73
2022/03/28 07:21:04;;;;;;;16.17;9.70;;;12.60;99.90;;;;;;5067628;28;20196;-73
2022/03/28 07:23:30;;;;;;;16.67;10.17;;;13.50;99.90;;;;;;5056297;28;20720;-74
2022/03/28 07:25:56;;;;;;;14.60;10.50;;;14.50;99.90;;;;;;5073394;28;20684;-74
2022/03/28 07:28:22;;;;;;;17.13;11.27;;;15.70;99.90;;;;;;5059770;28;20210;-74
2022/03/28 07:30:48;;;;;;;28.10;13.40;;;16.50;99.90;;;;;;5067157;28;20803;-74
2022/03/28 07:33:14;;;;;;;24.03;14.10;;;17.20;99.80;;;;;;5074594;28;20175;-74
2022/03/28 07:35:40;;;;;;;17.20;13.97;;;17.40;94.10;;;;;;5062013;28;20189;-74
2022/03/28 07:38:08;;;;;;;18.20;13.13;;;17.30;94.10;;;;;;5057623;28;20533;-73
2022/03/28 07:40:38;;;;;;;19.20;13.87;;;17.70;91.90;;;;;;5063866;28;20566;-74
2022/03/28 07:43:05;;;;;;;18.70;14.00;;;17.90;87.20;;;;;;5075757;28;20445;-74
2022/03/28 07:45:31;;;;;;;24.90;13.80;;;18.20;86.60;;;;;;5070264;28;20498;-74
2022/03/28 07:47:57;;;;;;;23.03;13.50;;;18.50;80.20;;;;;;5063732;28;20427;-74
2022/03/28 07:50:22;;;;;;;19.77;14.10;;;18.10;78.00;;;;;;5052759;28;21227;-74
2022/03/28 07:52:50;;;;;;;17.93;14.20;;;18.40;75.10;;;;;;5066138;28;20204;-74
2022/03/28 07:55:17;;;;;;;18.27;14.23;;;18.70;77.90;;;;;;5055601;28;20191;-74
2022/03/28 07:57:43;;;;;;;19.00;14.00;;;19.40;72.90;;;;;;5055669;28;20493;-74
2022/03/28 08:00:14;;;;;;;22.63;13.33;;;19.90;65.50;;;;;;5062250;28;20466;-74
2022/03/28 08:02:40;;;;;;;20.50;13.57;;;20.40;62.30;;;;;;5064720;28;20956;-74
2022/03/28 08:05:07;;;;;;;19.43;15.30;;;20.90;58.50;;;;;;5063255;28;20430;-72
2022/03/28 08:07:33;;;;;;;16.50;13.03;;;20.70;54.60;;;;;;5068974;28;20203;-72
2022/03/28 08:09:59;;;;;;;21.20;14.40;;;20.20;56.80;;;;;;5081983;28;20441;-72
2022/03/28 08:12:25;;;;;;;18.57;14.40;;;19.80;58.80;;;;;;5070160;28;20457;-72
2022/03/28 08:14:51;;;;;;;16.40;13.20;;;20.00;58.90;;;;;;5072985;28;20948;-72
2022/03/28 08:17:19;;;;;;;17.73;13.70;;;20.30;54.00;;;;;;5081238;28;20188;-71
2022/03/28 08:19:44;;;;;;;16.17;13.17;;;20.40;47.50;;;;;;5084884;28;20795;-72
2022/03/28 08:22:10;;;;;;;17.27;12.90;;;20.30;47.50;;;;;;5067393;28;20854;-72
2022/03/28 08:24:35;;;;;;;19.97;13.80;;;20.80;47.10;;;;;;5075751;28;20179;-72
2022/03/28 08:27:01;;;;;;;21.53;13.90;;;21.50;47.70;;;;;;5050769;28;20252;-72
2022/03/28 08:29:27;;;;;;;15.90;13.30;;;21.80;47.90;;;;;;5051319;28;20194;-72
2022/03/28 08:31:53;;;;;;;17.77;13.67;;;22.50;48.70;;;;;;5064033;28;20185;-72
2022/03/28 08:34:19;;;;;;;21.23;14.40;;;22.70;48.60;;;;;;5062588;28;20672;-72
2022/03/28 08:36:45;;;;;;;19.00;13.93;;;22.90;48.80;;;;;;5078078;28;20643;-72
2022/03/28 08:39:11;;;;;;;20.20;15.80;;;23.40;46.90;;;;;;5077220;28;20429;-73
2022/03/28 08:41:37;;;;;;;17.83;14.80;;;23.80;46.10;;;;;;5068066;28;20176;-74
2022/03/28 08:44:03;;;;;;;24.13;16.13;;;24.10;41.80;;;;;;5076546;28;20168;-73
2022/03/28 08:46:30;;;;;;;21.53;14.43;;;24.50;38.50;;;;;;5073783;28;20283;-73
2022/03/28 08:48:57;;;;;;;18.33;14.97;;;24.30;34.50;;;;;;5082521;28;20265;-72
2022/03/28 08:51:23;;;;;;;25.83;15.47;;;24.60;32.80;;;;;;5078668;28;20210;-73
2022/03/28 08:53:48;;;;;;;23.30;15.30;;;25.20;30.90;;;;;;5071414;28;20203;-73
2022/03/28 08:56:14;;;;;;;19.37;15.60;;;25.50;30.60;;;;;;5073656;28;20184;-73
2022/03/28 08:58:39;;;;;;;25.27;16.07;;;25.80;27.60;;;;;;5074209;28;21121;-73
2022/03/28 09:01:06;;;;;;;20.90;15.53;;;25.80;26.50;;;;;;5069994;28;20199;-73
2022/03/28 09:03:40;;;;;;;25.53;15.60;;;25.00;29.30;;;;;;5074881;28;20187;-73
2022/03/28 09:06:28;;;;;;;26.20;15.73;;;24.60;28.30;;;;;;5073093;28;20179;-73
2022/03/28 09:08:53;;;;;;;21.73;15.83;;;25.70;25.70;;;;;;5078921;28;20490;-72
2022/03/28 09:11:20;;;;;;;20.50;15.47;;;25.80;27.50;;;;;;5079916;28;20183;-73
2022/03/28 09:13:46;;;;;;;17.98;14.48;;;26.40;23.40;;;;;;5070149;28;20172;-73
2022/03/28 09:16:18;;;;;;;25.38;16.65;;;26.70;22.20;;;;;;5070049;28;20172;-73
2022/03/28 09:18:44;;;;;;;25.00;16.63;;;27.20;24.70;;;;;;5064590;28;20639;-73
2022/03/28 09:21:16;;;;;;;19.00;15.32;;;28.00;18.10;;;;;;5069573;28;20259;-74
2022/03/28 09:23:45;;;;;;;20.17;15.88;;;27.80;18.90;;;;;;5065905;28;20173;-73
2022/03/28 09:26:22;;;;;;;22.13;15.45;;;28.00;17.30;;;;;;5076189;28;20213;-74
2022/03/28 09:29:00;;;;;;;20.80;15.88;;;28.10;16.70;;;;;;5062436;28;20184;-73
2022/03/28 09:31:30;;;;;;;19.80;16.42;;;29.20;13.60;;;;;;5073522;28;20629;-73
2022/03/28 09:34:06;;;;;;;24.17;16.02;;;29.50;12.40;;;;;;5061498;28;20599;-74
2022/03/28 09:36:41;;;;;;;23.63;16.23;;;29.20;12.70;;;;;;5064165;28;20187;-74
2022/03/28 09:39:19;;;;;;;20.38;16.88;;;29.40;10.30;;;;;;5068940;28;20174;-74
2022/03/28 09:42:04;;;;;;;23.95;16.30;;;29.40;10.70;;;;;;5065465;28;20253;-73
2022/03/28 09:44:42;;;;;;;23.35;17.65;;;28.30;12.10;;;;;;5069340;28;20610;-74
2022/03/28 09:47:24;;;;;;;19.23;15.68;;;27.80;14.80;;;;;;5056460;28;20266;-73
2022/03/28 09:49:54;;;;;;;20.08;16.45;;;29.30;12.50;;;;;;5056194;28;20322;-74
2022/03/28 09:52:22;;;;;;;21.98;16.65;;;29.70;8.70;;;;;;5063720;28;20168;-73
2022/03/28 09:54:55;;;;;;;23.70;17.33;;;30.20;8.90;;;;;;5049243;28;20183;-74
2022/03/28 09:57:25;;;;;;;19.95;15.80;;;30.40;6.80;;;;;;5057688;28;20235;-73
2022/03/28 09:59:52;;;;;;;20.55;16.20;;;30.40;6.90;;;;;;5054303;28;20276;-73
2022/03/28 10:02:26;;;;;;;22.33;16.42;;;30.40;6.40;;;;;;5060523;28;20219;-73
2022/03/28 10:04:54;;;;;;;25.27;16.75;;;31.00;5.10;;;;;;5060399;28;20182;-74
2022/03/28 10:07:21;;;;;;;20.98;15.82;;;31.70;2.90;;;;;;5062264;28;20173;-74
2022/03/28 10:09:48;;;;;;;23.88;17.02;;;32.10;1.00;;;;;;5049674;28;20262;-74
2022/03/28 10:12:13;;;;;;;20.05;16.20;;;32.10;1.00;;;;;;5069234;28;20199;-77
2022/03/28 10:14:39;;;;;;;19.98;15.00;;;32.10;1.00;;;;;;5055170;28;20181;-73
2022/03/28 10:17:06;;;;;;;18.52;16.52;;;32.40;1.00;;;;;;5051874;28;20671;-74
2022/03/28 10:19:33;;;;;;;19.63;16.20;;;33.20;1.00;;;;;;5068553;28;20210;-74
2022/03/28 10:22:02;;;;;;;21.42;15.82;;;33.10;1.00;;;;;;5067288;28;20198;-73
2022/03/28 10:24:30;;;;;;;20.27;16.17;;;33.20;1.00;;;;;;5066331;28;20229;-73
2022/03/28 10:26:58;;;;;;;20.80;15.40;;;33.70;1.00;;;;;;5050201;28;20190;-73
2022/03/28 10:29:36;;;;;;;21.42;16.60;;;33.50;1.00;;;;;;5047809;28;20370;-74
2022/03/28 10:32:08;;;;;;;21.05;16.95;;;33.30;1.00;;;;;;5057122;28;20540;-74
2022/03/28 10:34:56;;;;;;;19.15;16.48;;;32.20;1.00;;;;;;5062796;28;20172;-74
2022/03/28 10:37:30;;;;;;;18.88;15.50;;;32.30;1.00;;;;;;5060302;28;20203;-74
2022/03/28 10:40:35;;;;;;;20.30;15.65;;;33.70;1.00;;;;;;5058815;28;20283;-74
2022/03/28 10:43:13;;;;;;;19.52;16.95;;;35.10;1.00;;;;;;5075141;28;20174;-74
2022/03/28 10:45:49;;;;;;;20.65;16.08;;;34.70;1.00;;;;;;5064227;28;20168;-75
2022/03/28 10:48:31;;;;;;;18.35;16.10;;;33.10;1.00;;;;;;5062882;28;20172;-74
2022/03/28 10:51:03;;;;;;;18.25;15.13;;;33.40;1.00;;;;;;5061977;28;20277;-73
2022/03/28 10:53:40;;;;;;;18.80;15.48;;;35.00;1.00;;;;;;5066756;28;20172;-74
2022/03/28 10:56:13;;;;;;;24.50;15.35;;;35.60;1.00;;;;;;5062003;28;20454;-74
2022/03/28 10:58:41;;;;;;;21.65;15.05;;;35.80;1.00;;;;;;5051893;28;20686;-73
2022/03/28 11:01:13;;;;;;;20.40;16.55;;;35.20;1.00;;;;;;5062540;28;20523;-73
2022/03/28 11:03:53;;;;;;;19.33;15.02;;;34.60;1.00;;;;;;5050660;28;20172;-74
2022/03/28 11:06:39;;;;;;;22.77;16.13;;;35.20;1.00;;;;;;5054814;28;20252;-74
2022/03/28 11:09:05;;;;;;;23.42;16.13;;;34.70;1.00;;;;;;5067756;28;20191;-73
2022/03/28 11:11:33;;;;;;;19.25;15.48;;;34.80;1.00;;;;;;5062234;28;20211;-73
2022/03/28 11:14:02;;;;;;;19.73;15.43;;;35.10;1.00;;;;;;5077064;28;20164;-73
2022/03/28 11:16:49;;;;;;;20.77;15.05;;;36.10;1.00;;;;;;5065043;28;20704;-73
2022/03/28 11:19:28;;;;;;;18.17;15.05;;;36.50;1.00;;;;;;5062605;28;20211;-74
2022/03/28 11:22:08;;;;;;;20.88;15.00;;;35.40;1.00;;;;;;5052589;28;20173;-74
2022/03/28 11:24:54;;;;;;;20.92;15.45;;;35.50;1.00;;;;;;5048298;28;20200;-74
2022/03/28 11:27:30;;;;;;;20.98;14.93;;;36.50;1.00;;;;;;5064596;28;20579;-73
2022/03/28 11:30:03;;;;;;;17.65;14.32;;;37.50;1.00;;;;;;5050415;28;20290;-74
2022/03/28 11:32:31;;;;;;;20.45;13.30;;;37.90;1.00;;;;;;5065949;28;20168;-74
2022/03/28 11:34:57;;;;;;;16.52;13.90;;;37.30;1.00;;;;;;5059346;28;20176;-73
2022/03/28 11:37:28;;;;;;;20.38;15.27;;;37.60;1.00;;;;;;5063140;28;20214;-74
2022/03/28 11:40:02;;;;;;;16.13;13.23;;;38.60;1.00;;;;;;5065234;28;20556;-74
2022/03/28 11:42:29;;;;;;;16.13;13.55;;;38.90;1.00;;;;;;5071296;28;20207;-73
2022/03/28 11:44:57;;;;;;;23.70;13.63;;;39.40;1.00;;;;;;5076464;28;20506;-74
2022/03/28 11:47:23;;;;;;;18.92;14.68;;;39.50;1.00;;;;;;5065063;28;20198;-73
2022/03/28 11:49:59;;;;;;;18.08;14.25;;;38.60;1.00;;;;;;5075546;28;20196;-74
2022/03/28 11:52:28;;;;;;;19.88;14.50;;;38.40;1.00;;;;;;5066333;28;20183;-74
2022/03/28 11:54:58;;;;;;;19.08;12.80;;;38.50;1.00;;;;;;5073251;28;20274;-74
2022/03/28 12:00:21;;;;;;;21.15;12.70;;;38.90;1.00;;;;;;5073251;28;20212;-73
2022/03/28 12:02:55;;;;;;;18.25;12.95;;;38.70;1.00;;;;;;5068775;28;20171;-74
2022/03/28 12:05:57;;;;;;;17.35;14.05;;;38.00;1.00;;;;;;5065545;28;20187;-73
2022/03/28 12:08:23;;;;;;;18.55;13.10;;;38.50;1.00;;;;;;5020556;28;20208;-74
2022/03/28 12:10:51;;;;;;;22.40;13.90;;;38.90;1.00;;;;;;5055691;28;20626;-73
2022/03/28 12:13:18;;;;;;;20.70;13.77;;;38.80;1.00;;;;;;5061996;28;20191;-74
2022/03/28 12:15:46;;;;;;;20.42;15.07;;;38.90;1.00;;;;;;5069660;28;20560;-73
2022/03/28 12:18:14;;;;;;;18.35;13.15;;;38.20;1.00;;;;;;5067319;28;20227;-74
2022/03/28 12:20:42;;;;;;;36.53;13.65;;;38.60;1.00;;;;;;5069950;28;20250;-74
2022/03/28 12:23:09;;;;;;;22.02;13.90;;;39.20;1.00;;;;;;5063959;28;20175;-74
2022/03/28 12:25:38;;;;;;;21.65;13.50;;;40.00;1.00;;;;;;5072605;28;20172;-74
2022/03/28 12:28:08;;;;;;;20.27;13.30;;;40.40;1.00;;;;;;5071691;28;20187;-74
2022/03/28 12:30:50;;;;;;;18.80;13.48;;;40.70;1.00;;;;;;5065781;28;20203;-74
2022/03/28 12:33:18;;;;;;;18.27;12.80;;;41.70;1.00;;;;;;5077780;28;20240;-75
2022/03/28 12:36:00;;;;;;;16.35;12.68;;;42.10;1.00;;;;;;5060851;28;20183;-74
2022/03/28 12:38:32;;;;;;;20.05;13.13;;;42.10;1.00;;;;;;5075532;28;20282;-75
2022/03/28 12:41:01;;;;;;;17.67;13.00;;;42.20;1.00;;;;;;5068635;28;20200;-75
2022/03/28 12:43:28;;;;;;;20.80;13.60;;;42.50;1.00;;;;;;5066017;28;20179;-75
2022/03/28 12:45:56;;;;;;;18.92;12.80;;;42.50;1.00;;;;;;5051806;28;20496;-75